Terminal Aerodrome Forecast
Issued by NWS

Home | Current Version | Previous Version | Text Only | Print | Product List | Glossary On
Versions: 1 2 3 4 5 6 7 8 9 10 11 12 13 14
638
FTUS44 KBMX 301228 AAA
TAFTOI
TAF AMD
KTOI 301228Z 3012/3112 33004KT P6SM SKC
     FM301800 35007KT P6SM SCT050
     FM310000 30003KT P6SM SKC=

USA.gov is the U.S. government's official web portal to all federal, state and local government web resources and services.